createdAt,value
2023-03-20T00:02:02.834Z,99684.09
2023-03-20T00:04:32.182Z,99696.34
2023-03-20T00:07:00.314Z,99696.97
2023-03-20T00:09:28.365Z,99695.16
2023-03-20T00:11:57.011Z,99693.56
2023-03-20T00:14:26.346Z,99692.31
2023-03-20T00:16:54.324Z,99681.31
2023-03-20T00:19:24.168Z,99687.00
2023-03-20T00:21:54.902Z,99683.47
2023-03-20T00:24:23.213Z,99686.47
2023-03-20T00:26:53.093Z,99691.94
2023-03-20T00:29:24.275Z,99679.19
2023-03-20T00:31:52.469Z,99681.53
2023-03-20T00:34:23.509Z,99679.03
2023-03-20T00:36:54.957Z,99676.97
2023-03-20T00:39:23.728Z,99677.44
2023-03-20T00:41:53.563Z,99678.59
2023-03-20T00:44:26.309Z,99670.34
2023-03-20T00:46:56.791Z,99676.28
2023-03-20T00:49:28.870Z,99676.28
2023-03-20T00:51:58.378Z,99675.53
2023-03-20T00:54:26.697Z,99667.16
2023-03-20T00:56:58.746Z,99669.66
2023-03-20T00:59:31.255Z,99670.50
2023-03-20T01:01:59.563Z,99664.50
2023-03-20T01:04:32.700Z,99662.78
2023-03-20T01:07:02.082Z,99654.28
2023-03-20T01:09:30.483Z,99658.53
2023-03-20T01:12:00.759Z,99660.16
2023-03-20T01:14:28.791Z,99670.09
2023-03-20T01:16:56.904Z,99664.03
2023-03-20T01:19:24.861Z,99659.78
2023-03-20T01:21:52.785Z,99660.69
2023-03-20T01:24:22.161Z,99666.34
2023-03-20T01:26:51.715Z,99661.97
2023-03-20T01:29:22.142Z,99668.38
2023-03-20T01:31:50.657Z,99665.28
2023-03-20T01:34:21.031Z,99661.94
2023-03-20T01:36:51.790Z,99664.78
2023-03-20T01:39:21.756Z,99660.28
2023-03-20T01:41:53.361Z,99662.84
2023-03-20T01:44:24.278Z,99666.34
2023-03-20T01:46:57.519Z,99668.06
2023-03-20T01:49:58.654Z,99667.16
2023-03-20T01:52:26.667Z,99671.47
2023-03-20T01:54:54.729Z,99675.84
2023-03-20T01:57:26.138Z,99678.34
2023-03-20T02:00:03.177Z,99671.47
2023-03-20T02:02:45.291Z,99679.59
2023-03-20T02:05:20.131Z,99678.56
2023-03-20T02:07:55.349Z,99678.16
2023-03-20T02:10:24.223Z,99679.00
2023-03-20T02:13:11.926Z,99681.19
2023-03-20T02:16:03.045Z,99681.63
2023-03-20T02:18:52.518Z,99686.25
2023-03-20T02:22:07.658Z,99678.25
2023-03-20T02:25:17.709Z,99682.59
2023-03-20T02:28:11.073Z,99684.00
2023-03-20T02:31:06.442Z,99668.69
2023-03-20T02:34:03.446Z,99675.97
2023-03-20T02:37:21.347Z,99679.19
2023-03-20T02:40:00.773Z,99666.59
2023-03-20T02:42:39.892Z,99676.66
2023-03-20T02:45:17.830Z,99672.91
2023-03-20T02:47:53.816Z,99675.09
2023-03-20T02:50:30.810Z,99668.28
2023-03-20T02:53:12.221Z,99668.94
2023-03-20T02:55:46.078Z,99674.50
2023-03-20T02:58:17.709Z,99666.94
2023-03-20T03:00:52.284Z,99665.16
2023-03-20T03:03:25.267Z,99669.28
2023-03-20T03:05:56.642Z,99669.13
2023-03-20T03:08:31.385Z,99667.38
2023-03-20T03:11:04.225Z,99672.16
2023-03-20T03:13:36.174Z,99663.13
2023-03-20T03:16:08.619Z,99665.19
2023-03-20T03:18:39.429Z,99668.84
2023-03-20T03:21:10.206Z,99665.22
2023-03-20T03:23:46.953Z,99666.22
2023-03-20T03:26:19.736Z,99662.84
2023-03-20T03:28:51.168Z,99662.84
2023-03-20T03:31:20.751Z,99657.97
2023-03-20T03:33:51.614Z,99663.63
2023-03-20T03:36:32.926Z,99674.22
2023-03-20T03:39:11.286Z,99667.16
2023-03-20T03:41:42.994Z,99676.25
2023-03-20T03:44:17.499Z,99673.47
2023-03-20T03:46:51.361Z,99666.53
2023-03-20T03:49:24.195Z,99671.25
2023-03-20T03:51:55.955Z,99674.25
2023-03-20T03:54:27.740Z,99674.88
2023-03-20T03:57:30.743Z,99678.16
2023-03-20T04:00:00.220Z,99677.38
2023-03-20T04:02:28.533Z,99680.00
2023-03-20T04:04:59.058Z,99691.84
2023-03-20T04:07:28.846Z,99692.69
2023-03-20T04:09:58.154Z,99696.13
2023-03-20T04:12:37.001Z,99696.19
2023-03-20T04:15:07.419Z,99699.81
2023-03-20T04:17:35.514Z,99693.63
2023-03-20T04:20:05.206Z,99691.00
2023-03-20T04:22:34.905Z,99693.38
2023-03-20T04:25:19.160Z,99691.38
2023-03-20T04:27:47.513Z,99690.78
2023-03-20T04:30:26.201Z,99693.44
2023-03-20T04:33:13.004Z,99690.13
2023-03-20T04:36:02.894Z,99691.00
2023-03-20T04:38:30.968Z,99689.22
2023-03-20T04:41:00.265Z,99684.72
2023-03-20T04:43:28.473Z,99688.69
2023-03-20T04:45:56.847Z,99683.66
2023-03-20T04:48:24.893Z,99686.88
2023-03-20T04:50:52.824Z,99693.69
2023-03-20T04:53:27.288Z,99691.31
2023-03-20T04:55:55.919Z,99698.00
2023-03-20T04:58:25.504Z,99702.19
2023-03-20T05:00:53.857Z,99700.34
2023-03-20T05:03:24.161Z,99701.69
2023-03-20T05:05:52.372Z,99699.59
2023-03-20T05:08:21.091Z,99696.69
2023-03-20T05:10:48.994Z,99638.75
2023-03-20T05:13:41.149Z,99711.44
2023-03-20T05:16:26.610Z,99708.91
2023-03-20T05:19:11.211Z,99706.03
2023-03-20T05:21:57.538Z,99711.38
2023-03-20T05:24:50.233Z,99708.63
2023-03-20T05:27:18.607Z,99719.09
2023-03-20T05:30:07.415Z,99717.69
2023-03-20T05:32:38.899Z,99721.25
2023-03-20T05:35:21.514Z,99732.06
2023-03-20T05:37:54.379Z,99729.22
2023-03-20T05:40:31.076Z,99737.16
2023-03-20T05:43:17.408Z,99744.06
2023-03-20T05:46:20.490Z,99741.97
2023-03-20T05:49:15.507Z,99749.00
2023-03-20T05:52:06.032Z,99749.88
2023-03-20T05:55:03.067Z,99753.19
2023-03-20T05:57:40.772Z,99755.16
2023-03-20T06:00:27.263Z,99754.50
2023-03-20T06:03:16.507Z,99756.81
2023-03-20T06:06:03.746Z,99752.97
2023-03-20T06:08:31.759Z,99758.09
2023-03-20T06:11:01.483Z,99758.97
2023-03-20T06:13:30.258Z,99760.16
2023-03-20T06:16:01.995Z,99763.97
2023-03-20T06:18:31.722Z,99765.09
2023-03-20T06:21:00.242Z,99764.28
2023-03-20T06:23:30.348Z,99760.16
2023-03-20T06:25:59.148Z,99766.84
2023-03-20T06:28:27.686Z,99761.16
2023-03-20T06:31:02.949Z,99762.06
2023-03-20T06:33:32.502Z,99758.66
2023-03-20T06:36:01.964Z,99770.41
2023-03-20T06:38:32.430Z,99768.63
2023-03-20T06:41:06.935Z,99764.22
2023-03-20T06:43:35.517Z,99768.75
2023-03-20T06:46:03.532Z,99776.25
2023-03-20T06:48:34.449Z,99786.56
2023-03-20T06:51:06.413Z,99787.78
2023-03-20T06:53:39.594Z,99783.97
2023-03-20T06:56:11.436Z,99786.59
2023-03-20T06:58:41.597Z,99786.06
2023-03-20T07:01:11.072Z,99778.84
2023-03-20T07:03:41.288Z,99774.44
2023-03-20T07:06:12.146Z,99779.91
2023-03-20T07:08:40.344Z,99772.97
2023-03-20T07:11:09.227Z,99758.41
2023-03-20T07:13:38.076Z,99765.28
2023-03-20T07:16:19.808Z,99766.44
2023-03-20T07:18:49.119Z,99762.63
2023-03-20T07:21:20.338Z,99767.81
2023-03-20T07:23:48.399Z,99774.72
2023-03-20T07:26:17.036Z,99759.06
2023-03-20T07:28:45.166Z,99772.53
2023-03-20T07:31:23.469Z,99776.00
2023-03-20T07:33:58.426Z,99777.03
2023-03-20T07:36:26.568Z,99778.19
2023-03-20T07:38:54.658Z,99781.66
2023-03-20T07:41:22.542Z,99773.44
2023-03-20T07:44:00.672Z,99776.13
2023-03-20T07:46:41.055Z,99777.88
2023-03-20T07:49:11.408Z,99775.16
2023-03-20T07:51:39.975Z,99778.31
2023-03-20T07:54:07.827Z,99770.28
2023-03-20T07:56:35.782Z,99773.88
2023-03-20T07:59:03.687Z,99771.78
2023-03-20T08:01:31.662Z,99771.94
2023-03-20T08:03:59.604Z,99773.91
2023-03-20T08:06:28.862Z,99773.38
2023-03-20T08:08:57.129Z,99777.06
2023-03-20T08:11:25.040Z,99778.31
2023-03-20T08:13:52.942Z,99775.47
2023-03-20T08:16:20.860Z,99775.75
2023-03-20T08:18:50.548Z,99773.50
2023-03-20T08:21:18.518Z,99778.03
2023-03-20T08:23:47.690Z,99778.44
2023-03-20T08:26:15.910Z,99774.56
2023-03-20T08:28:47.943Z,99774.09
2023-03-20T08:31:17.753Z,99775.19
2023-03-20T08:33:46.327Z,99766.06
2023-03-20T08:36:15.965Z,99764.59
2023-03-20T08:38:44.333Z,99767.03
2023-03-20T08:41:13.799Z,99776.38
2023-03-20T08:43:41.974Z,99773.13
2023-03-20T08:46:10.252Z,99776.56
2023-03-20T08:48:38.144Z,99767.41
2023-03-20T08:51:07.480Z,99780.16
2023-03-20T08:53:35.648Z,99772.75
2023-03-20T08:56:03.510Z,99778.69
2023-03-20T08:58:32.849Z,99778.88
2023-03-20T09:01:05.216Z,99763.97
2023-03-20T09:03:33.151Z,99767.59
2023-03-20T09:06:01.067Z,99771.09
2023-03-20T09:08:28.913Z,99763.59
2023-03-20T09:10:56.831Z,99756.88
2023-03-20T09:13:27.553Z,99767.94
2023-03-20T09:15:58.225Z,99763.09
2023-03-20T09:18:26.842Z,99743.03
2023-03-20T09:20:56.529Z,99761.06
2023-03-20T09:23:24.583Z,99758.72
2023-03-20T09:25:52.765Z,99760.69
2023-03-20T09:28:20.820Z,99761.66
2023-03-20T09:30:48.898Z,99763.47
2023-03-20T09:33:18.816Z,99761.19
2023-03-20T09:35:47.029Z,99758.91
2023-03-20T09:38:15.596Z,99758.19
2023-03-20T09:40:52.260Z,99759.97
2023-03-20T09:43:29.969Z,99743.25
2023-03-20T09:46:08.778Z,99753.50
2023-03-20T09:48:45.042Z,99747.91
2023-03-20T09:51:22.598Z,99748.88
2023-03-20T09:54:01.020Z,99737.16
2023-03-20T09:56:31.667Z,99740.75
2023-03-20T09:59:02.696Z,99741.72
2023-03-20T10:01:34.824Z,99738.50
2023-03-20T10:04:09.735Z,99730.22
2023-03-20T10:06:38.080Z,99732.78
2023-03-20T10:09:15.542Z,99728.75
2023-03-20T10:11:57.736Z,99726.41
2023-03-20T10:14:34.863Z,99719.84
2023-03-20T10:17:16.652Z,99717.47
2023-03-20T10:19:53.377Z,99711.75
2023-03-20T10:22:25.689Z,99705.22
2023-03-20T10:25:00.252Z,99710.47
2023-03-20T10:27:34.058Z,99708.22
2023-03-20T10:30:22.937Z,99702.53
2023-03-20T10:33:01.308Z,99701.09
2023-03-20T10:35:40.644Z,99706.31
2023-03-20T10:38:18.736Z,99698.09
2023-03-20T10:40:47.178Z,99699.94
2023-03-20T10:43:19.428Z,99706.75
2023-03-20T10:45:50.914Z,99702.69
2023-03-20T10:48:24.594Z,99701.88
2023-03-20T10:50:57.119Z,99705.41
2023-03-20T10:53:31.614Z,99698.84
2023-03-20T10:56:04.082Z,99688.06
2023-03-20T10:58:36.692Z,99687.38
2023-03-20T11:01:05.153Z,99679.09
2023-03-20T11:03:34.259Z,99662.38
2023-03-20T11:06:10.072Z,99674.31
2023-03-20T11:08:41.299Z,99677.84
2023-03-20T11:11:09.751Z,99677.09
2023-03-20T11:13:40.182Z,99676.31
2023-03-20T11:16:21.921Z,99672.34
2023-03-20T11:18:52.229Z,99669.91
2023-03-20T11:21:24.453Z,99666.59
2023-03-20T11:23:53.433Z,99660.03
2023-03-20T11:26:33.806Z,99662.63
2023-03-20T11:29:01.901Z,99658.47
2023-03-20T11:31:34.868Z,99649.31
2023-03-20T11:34:13.106Z,99650.22
2023-03-20T11:37:09.245Z,99648.66
2023-03-20T11:39:39.947Z,99642.84
2023-03-20T11:42:24.724Z,99636.19
2023-03-20T11:45:02.512Z,99637.09
2023-03-20T11:47:34.777Z,99632.91
2023-03-20T11:50:04.664Z,99630.38
2023-03-20T11:52:36.337Z,99621.97
2023-03-20T11:55:26.368Z,99621.97
2023-03-20T11:57:58.022Z,99616.94
2023-03-20T12:00:37.387Z,99621.16
2023-03-20T12:03:54.717Z,99607.69
2023-03-20T12:06:52.387Z,99606.84
2023-03-20T12:09:40.476Z,99585.69
2023-03-20T12:12:20.957Z,99604.25
2023-03-20T12:14:58.326Z,99609.31
2023-03-20T12:17:36.426Z,99596.69
2023-03-20T12:20:16.075Z,99598.34
2023-03-20T12:22:51.126Z,99596.72
2023-03-20T12:25:24.143Z,99591.81
2023-03-20T12:28:02.104Z,99601.09
2023-03-20T12:30:39.686Z,99596.94
2023-03-20T12:33:13.167Z,99599.44
2023-03-20T12:35:46.468Z,99598.63
2023-03-20T12:38:24.263Z,99598.63
2023-03-20T12:40:56.444Z,99597.78
2023-03-20T12:43:28.106Z,99598.63
2023-03-20T12:46:03.526Z,99600.28
2023-03-20T12:48:45.584Z,99597.81
2023-03-20T12:51:24.509Z,99560.78
2023-03-20T12:54:02.733Z,99576.81
2023-03-20T12:56:49.167Z,99586.97
2023-03-20T12:59:28.114Z,99585.38
2023-03-20T13:02:00.313Z,99581.16
2023-03-20T13:04:50.111Z,99586.22
2023-03-20T13:07:20.892Z,99591.34
2023-03-20T13:10:10.349Z,99574.50
2023-03-20T13:12:46.127Z,99580.38
2023-03-20T13:15:27.276Z,99561.00
2023-03-20T13:18:05.645Z,99580.38
2023-03-20T13:20:35.838Z,99590.47
2023-03-20T13:23:12.334Z,99585.44
2023-03-20T13:25:54.522Z,99569.44
2023-03-20T13:28:31.187Z,99571.97
2023-03-20T13:31:07.464Z,99563.56
2023-03-20T13:33:48.764Z,99565.19
2023-03-20T13:36:28.230Z,99555.91
2023-03-20T13:39:01.943Z,99565.13
2023-03-20T13:41:29.975Z,99546.63
2023-03-20T13:44:03.597Z,99550.78
2023-03-20T13:46:39.073Z,99551.63
2023-03-20T13:49:14.036Z,99548.25
2023-03-20T13:51:47.956Z,99554.13
2023-03-20T13:54:29.917Z,99550.72
2023-03-20T13:57:06.540Z,99554.88
2023-03-20T13:59:50.803Z,99555.69
2023-03-20T14:02:32.381Z,99549.81
2023-03-20T14:05:07.695Z,99553.22
2023-03-20T14:07:37.293Z,99549.94
2023-03-20T14:10:36.405Z,99549.94
2023-03-20T14:13:08.457Z,99560.03
2023-03-20T14:15:39.276Z,99555.88
2023-03-20T14:18:16.425Z,99550.09
2023-03-20T14:20:51.846Z,99543.31
2023-03-20T14:23:24.472Z,99537.28
2023-03-20T14:25:56.084Z,99527.97
2023-03-20T14:28:28.357Z,99542.03
2023-03-20T14:31:24.264Z,99540.94
2023-03-20T14:34:01.484Z,99539.91
2023-03-20T14:36:45.953Z,99538.09
2023-03-20T14:39:23.549Z,99533.03
2023-03-20T14:42:08.847Z,99537.28
2023-03-20T14:44:55.506Z,99531.66
2023-03-20T14:47:37.225Z,99536.06
2023-03-20T14:50:15.597Z,99529.56
2023-03-20T14:52:56.797Z,99538.09
2023-03-20T14:55:34.228Z,99533.94
2023-03-20T14:58:50.745Z,99538.25
2023-03-20T15:01:26.512Z,99539.97
2023-03-20T15:03:58.899Z,99544.19
2023-03-20T15:06:29.739Z,99546.72
2023-03-20T15:09:01.123Z,99539.94
2023-03-20T15:11:30.444Z,99544.16
2023-03-20T15:14:01.184Z,99540.75
2023-03-20T15:16:30.570Z,99538.22
2023-03-20T15:18:59.310Z,99550.81
2023-03-20T15:21:35.913Z,99544.94
2023-03-20T15:24:05.043Z,99536.50
2023-03-20T15:26:35.012Z,99542.38
2023-03-20T15:29:06.084Z,99546.63
2023-03-20T15:31:36.536Z,99539.88
2023-03-20T15:34:09.278Z,99554.19
2023-03-20T15:36:40.917Z,99558.44
2023-03-20T15:39:16.112Z,99555.09
2023-03-20T15:41:48.286Z,99549.16
2023-03-20T15:44:22.146Z,99528.97
2023-03-20T15:47:00.169Z,99547.47
2023-03-20T15:49:29.257Z,99549.94
2023-03-20T15:52:01.912Z,99548.25
2023-03-20T15:54:30.101Z,99549.19
2023-03-20T15:57:00.743Z,99563.53
2023-03-20T15:59:32.503Z,99557.66
2023-03-20T16:02:02.322Z,99566.09
2023-03-20T16:04:30.525Z,99561.03
2023-03-20T16:07:01.262Z,99566.94
2023-03-20T16:09:30.018Z,99565.22
2023-03-20T16:12:00.403Z,99566.91
2023-03-20T16:14:32.214Z,99570.25
2023-03-20T16:17:02.806Z,99568.56
2023-03-20T16:19:31.330Z,99578.63
2023-03-20T16:22:03.243Z,99579.44
2023-03-20T16:24:35.918Z,99577.72
2023-03-20T16:27:08.119Z,99574.31
2023-03-20T16:29:37.586Z,99581.03
2023-03-20T16:32:09.029Z,99579.31
2023-03-20T16:34:39.619Z,99583.47
2023-03-20T16:37:22.966Z,99572.47
2023-03-20T16:40:03.347Z,99579.09
2023-03-20T16:42:31.381Z,99581.59
2023-03-20T16:44:59.940Z,99593.34
2023-03-20T16:47:36.127Z,99588.22
2023-03-20T16:50:18.759Z,99596.59
2023-03-20T16:52:50.605Z,99591.50
2023-03-20T16:55:23.482Z,99597.38
2023-03-20T16:57:55.342Z,99598.16
2023-03-20T17:00:27.703Z,99598.97
2023-03-20T17:03:09.017Z,99598.94
2023-03-20T17:05:49.983Z,99607.28
2023-03-20T17:08:27.341Z,99608.97
2023-03-20T17:10:59.508Z,99613.97
2023-03-20T17:13:27.718Z,99610.59
2023-03-20T17:15:55.978Z,99620.66
2023-03-20T17:18:24.059Z,99612.28
2023-03-20T17:20:51.944Z,99618.19
2023-03-20T17:23:23.802Z,99610.59
2023-03-20T17:25:52.220Z,99613.09
2023-03-20T17:28:23.049Z,99620.56
2023-03-20T17:30:52.319Z,99611.28
2023-03-20T17:33:22.040Z,99618.88
2023-03-20T17:35:50.497Z,99618.84
2023-03-20T17:38:22.513Z,99612.06
2023-03-20T17:40:51.863Z,99621.41
2023-03-20T17:43:20.978Z,99628.94
2023-03-20T17:45:49.196Z,99625.56
2023-03-20T17:48:20.588Z,99624.69
2023-03-20T17:50:50.355Z,99621.28
2023-03-20T17:53:21.700Z,99622.16
2023-03-20T17:55:49.777Z,99624.63
2023-03-20T17:58:21.040Z,99622.91
2023-03-20T18:00:49.991Z,99617.00
2023-03-20T18:03:18.223Z,99627.06
2023-03-20T18:05:47.495Z,99631.22
2023-03-20T18:08:17.005Z,99621.13
2023-03-20T18:10:46.499Z,99627.00
2023-03-20T18:13:14.355Z,99627.81
2023-03-20T18:15:42.297Z,99624.41
2023-03-20T18:18:10.833Z,99623.50
2023-03-20T18:20:41.062Z,99629.31
2023-03-20T18:23:09.676Z,99625.06
2023-03-20T18:25:37.802Z,99621.63
2023-03-20T18:28:13.386Z,99624.03
2023-03-20T18:30:42.523Z,99624.81
2023-03-20T18:33:10.980Z,99623.88
2023-03-20T18:35:39.421Z,99622.16
2023-03-20T18:38:07.362Z,99626.22
2023-03-20T18:40:37.596Z,99606.78
2023-03-20T18:43:07.145Z,99620.22
2023-03-20T18:45:35.071Z,99625.19
2023-03-20T18:48:03.899Z,99618.44
2023-03-20T18:50:36.946Z,99631.00
2023-03-20T18:53:06.613Z,99637.75
2023-03-20T18:55:35.544Z,99641.88
2023-03-20T18:58:04.250Z,99631.78
2023-03-20T19:00:38.268Z,99639.34
2023-03-20T19:03:08.199Z,99633.53
2023-03-20T19:05:36.346Z,99612.50
2023-03-20T19:08:04.573Z,99622.72
2023-03-20T19:10:36.114Z,99625.25
2023-03-20T19:13:06.080Z,99624.38
2023-03-20T19:15:38.490Z,99630.22
2023-03-20T19:18:08.430Z,99628.56
2023-03-20T19:20:38.131Z,99637.75
2023-03-20T19:23:08.014Z,99643.56
2023-03-20T19:25:37.717Z,99635.06
2023-03-20T19:28:07.813Z,99645.09
2023-03-20T19:30:39.625Z,99652.50
2023-03-20T19:33:08.154Z,99661.56
2023-03-20T19:36:01.936Z,99654.66
2023-03-20T19:38:25.012Z,99658.81
2023-03-20T19:40:53.768Z,99655.41
2023-03-20T19:43:22.366Z,99651.13
2023-03-20T19:45:58.010Z,99649.28
2023-03-20T19:48:43.373Z,99649.31
2023-03-20T19:51:16.994Z,99663.47
2023-03-20T19:53:46.038Z,99650.06
2023-03-20T19:56:15.257Z,99650.81
2023-03-20T19:58:44.434Z,99652.38
2023-03-20T20:01:17.100Z,99632.97
2023-03-20T20:03:46.166Z,99656.59
2023-03-20T20:06:14.729Z,99657.44
2023-03-20T20:08:48.375Z,99659.03
2023-03-20T20:11:17.453Z,99660.63
2023-03-20T20:14:04.766Z,99662.22
2023-03-20T20:16:35.946Z,99659.56
2023-03-20T20:19:03.964Z,99656.97
2023-03-20T20:22:17.086Z,99661.97
2023-03-20T20:24:20.423Z,99651.72
2023-03-20T20:26:54.893Z,99665.22
2023-03-20T20:29:25.625Z,99668.63
2023-03-20T20:31:54.949Z,99674.53
2023-03-20T20:35:22.498Z,99663.75
2023-03-20T20:39:59.276Z,99663.78
2023-03-20T20:42:27.290Z,99662.88
2023-03-20T20:44:55.242Z,99656.97
2023-03-20T20:47:24.457Z,99660.25
2023-03-20T20:49:52.331Z,99658.44
2023-03-20T20:52:20.378Z,99658.31
2023-03-20T20:54:48.419Z,99664.94
2023-03-20T20:57:16.543Z,99664.81
2023-03-20T20:59:44.524Z,99666.31
2023-03-20T21:02:13.309Z,99663.72
2023-03-20T21:04:43.779Z,99663.69
2023-03-20T21:07:13.439Z,99667.75
2023-03-20T21:09:42.113Z,99662.69
2023-03-20T21:12:19.626Z,99668.50
2023-03-20T21:14:58.772Z,99671.00
2023-03-20T21:17:27.083Z,99671.72
2023-03-20T21:19:56.732Z,99675.06
2023-03-20T21:22:25.185Z,99664.31
2023-03-20T21:25:00.776Z,99666.00
2023-03-20T21:27:35.658Z,99666.91
2023-03-20T21:30:04.444Z,99665.19
2023-03-20T21:32:36.595Z,99676.91
2023-03-20T21:35:09.294Z,99663.56
2023-03-20T21:40:26.127Z,99657.81
2023-03-20T21:42:54.008Z,99666.16
2023-03-20T21:48:42.761Z,99666.19
2023-03-20T21:51:49.381Z,99666.97
2023-03-20T21:54:43.791Z,99666.13
2023-03-20T21:57:17.731Z,99664.44
2023-03-20T22:00:05.009Z,99662.81
2023-03-20T22:02:23.677Z,99666.13
2023-03-20T22:14:19.131Z,99663.34
2023-03-20T22:17:03.386Z,99669.34
2023-03-20T22:25:44.342Z,99640.69
2023-03-20T22:28:00.899Z,99660.94
2023-03-20T22:39:24.596Z,99657.59
2023-03-20T22:44:53.652Z,99655.91
2023-03-20T22:47:06.695Z,99652.47
2023-03-20T22:49:34.730Z,99649.91
2023-03-20T22:52:19.523Z,99651.59
2023-03-20T22:54:50.600Z,99655.72
2023-03-20T22:57:20.594Z,99649.03
2023-03-20T22:59:48.628Z,99651.63
2023-03-20T23:02:17.075Z,99657.50
2023-03-20T23:04:45.026Z,99649.16
2023-03-20T23:07:12.876Z,99652.53
2023-03-20T23:09:40.824Z,99651.66
2023-03-20T23:12:08.961Z,99652.53
2023-03-20T23:14:45.787Z,99649.16
2023-03-20T23:17:14.754Z,99649.97
2023-03-20T23:19:49.088Z,99645.78
2023-03-20T23:22:20.382Z,99651.56
2023-03-20T23:24:48.442Z,99655.41
2023-03-20T23:27:17.257Z,99650.25
2023-03-20T23:29:46.627Z,99651.97
2023-03-20T23:32:14.636Z,99648.56
2023-03-20T23:34:43.609Z,99647.78
2023-03-20T23:37:11.622Z,99652.81
2023-03-20T23:39:39.494Z,99640.22
2023-03-20T23:42:20.312Z,99646.88
2023-03-20T23:44:58.641Z,99646.91
2023-03-20T23:47:38.442Z,99641.75
2023-03-20T23:50:20.645Z,99645.94
2023-03-20T23:53:01.006Z,99645.97
2023-03-20T23:55:34.211Z,99640.06
2023-03-20T23:58:02.481Z,99636.72
